Time;durP1;ratioP1;P1;durP2;ratioP2;P2;SDS_P1;SDS_P2;PMS_P1;PMS_P2;Temp;Humidity;BMP_temperature;BMP_pressure;BME280_temperature;BME280_humidity;BME280_pressure;Samples;Min_cycle;Max_cycle;Signal;HPM_P1;HPM_P2
2022/05/01 00:02:13;;;;;;;18.87;7.90;;;5.60;89.00;;;;;;4812692;29;20654;-82
2022/05/01 00:04:38;;;;;;;15.73;8.17;;;5.50;89.10;;;;;;4826061;29;20181;-83
2022/05/01 00:07:04;;;;;;;19.53;8.87;;;5.50;89.20;;;;;;4826796;29;20270;-83
2022/05/01 00:09:30;;;;;;;14.20;8.43;;;5.30;89.00;;;;;;4826355;29;20666;-82
2022/05/01 00:11:56;;;;;;;16.93;7.80;;;5.30;89.10;;;;;;4826314;29;20182;-83
2022/05/01 00:14:22;;;;;;;12.40;6.97;;;5.40;89.00;;;;;;4809179;29;20215;-83
2022/05/01 00:16:49;;;;;;;10.03;6.93;;;5.30;89.00;;;;;;4826460;29;20186;-84
2022/05/01 00:19:15;;;;;;;9.87;5.93;;;5.40;89.10;;;;;;4810133;29;20632;-84
2022/05/01 00:21:40;;;;;;;13.07;6.73;;;5.40;88.90;;;;;;4810471;29;20192;-82
2022/05/01 00:24:06;;;;;;;9.90;6.00;;;5.40;88.60;;;;;;4809920;29;20677;-82
2022/05/01 00:26:32;;;;;;;12.40;7.40;;;5.30;88.30;;;;;;4826068;29;20555;-83
2022/05/01 00:28:58;;;;;;;14.07;7.70;;;5.30;88.00;;;;;;4810270;29;20214;-82
2022/05/01 00:31:24;;;;;;;12.03;7.93;;;5.50;88.50;;;;;;4809394;29;20195;-82
2022/05/01 00:36:34;;;;;;;9.00;7.80;;;5.60;88.70;;;;;;4826890;29;20172;-83
2022/05/01 00:39:05;;;;;;;15.60;8.30;;;5.50;88.50;;;;;;4826748;29;20198;-83
2022/05/01 00:41:33;;;;;;;12.07;7.43;;;5.50;88.50;;;;;;4809806;29;20198;-82
2022/05/01 00:44:08;;;;;;;14.10;7.97;;;5.50;88.40;;;;;;4809683;29;20192;-82
2022/05/01 00:46:39;;;;;;;12.67;7.20;;;5.60;88.50;;;;;;4809654;29;20612;-83
2022/05/01 00:49:08;;;;;;;12.17;7.63;;;5.50;88.30;;;;;;4825921;29;20277;-82
2022/05/01 00:51:41;;;;;;;15.03;8.40;;;5.50;88.10;;;;;;4809545;29;20194;-82
2022/05/01 00:54:07;;;;;;;15.67;8.37;;;5.50;88.10;;;;;;4809116;29;20210;-82
2022/05/01 00:56:38;;;;;;;22.33;8.70;;;5.60;88.60;;;;;;4809299;29;20186;-82
2022/05/01 00:59:04;;;;;;;16.60;8.70;;;5.60;88.90;;;;;;4826473;29;20260;-83
2022/05/01 01:01:31;;;;;;;16.93;8.70;;;5.50;89.00;;;;;;4809670;29;20667;-82
2022/05/01 01:03:57;;;;;;;18.53;8.60;;;5.50;89.00;;;;;;4826293;29;20231;-83
2022/05/01 01:06:22;;;;;;;25.93;8.57;;;5.50;89.00;;;;;;4809660;29;20187;-83
2022/05/01 01:08:48;;;;;;;26.50;9.60;;;5.50;89.20;;;;;;4827456;29;20206;-83
2022/05/01 01:11:14;;;;;;;20.10;8.33;;;5.30;89.10;;;;;;4809393;29;20186;-84
2022/05/01 01:13:41;;;;;;;34.37;8.90;;;5.20;89.10;;;;;;4826335;29;20207;-83
2022/05/01 01:16:09;;;;;;;13.33;8.00;;;5.10;89.30;;;;;;4825917;29;20182;-83
2022/05/01 01:18:35;;;;;;;14.03;8.70;;;4.90;89.30;;;;;;4809392;29;20242;-82
2022/05/01 01:21:01;;;;;;;15.00;9.10;;;4.90;89.50;;;;;;4808618;29;20205;-83
2022/05/01 01:23:29;;;;;;;14.60;8.13;;;4.90;89.80;;;;;;4809208;29;20657;-82
2022/05/01 01:25:55;;;;;;;13.17;8.87;;;5.00;90.00;;;;;;4807407;29;20188;-84
2022/05/01 01:28:21;;;;;;;12.33;8.53;;;5.00;90.00;;;;;;4823863;29;20198;-84
2022/05/01 01:33:33;;;;;;;24.97;8.77;;;5.10;89.90;;;;;;4824110;29;20204;-84
2022/05/01 01:36:03;;;;;;;16.73;8.10;;;5.10;89.90;;;;;;4823930;29;20179;-84
2022/05/01 01:38:28;;;;;;;15.60;8.10;;;5.10;89.80;;;;;;4807452;29;20618;-84
2022/05/01 01:40:58;;;;;;;11.37;8.33;;;5.10;89.80;;;;;;4823508;29;20203;-84
2022/05/01 01:43:28;;;;;;;11.17;8.10;;;5.20;90.00;;;;;;4823635;29;20197;-83
2022/05/01 01:45:55;;;;;;;10.53;8.17;;;5.00;89.80;;;;;;4810559;29;20214;-84
2022/05/01 01:48:22;;;;;;;14.60;8.83;;;5.10;89.70;;;;;;4810351;29;20620;-85
2022/05/01 01:51:02;;;;;;;19.30;10.10;;;5.00;89.50;;;;;;4826699;29;20554;-85
2022/05/01 01:53:30;;;;;;;12.93;9.47;;;5.10;89.60;;;;;;4826667;29;20197;-85
2022/05/01 01:55:57;;;;;;;11.23;7.60;;;5.10;89.70;;;;;;4810407;29;20239;-85
2022/05/01 01:58:23;;;;;;;11.57;8.27;;;5.10;89.70;;;;;;4810228;29;20690;-84
2022/05/01 02:00:49;;;;;;;10.70;7.97;;;5.10;89.60;;;;;;4810261;29;20277;-84
2022/05/01 02:03:15;;;;;;;12.20;7.97;;;5.10;89.60;;;;;;4810197;29;20222;-84
2022/05/01 02:05:41;;;;;;;9.33;7.60;;;5.00;89.50;;;;;;4826469;29;20178;-84
2022/05/01 02:08:08;;;;;;;9.33;8.40;;;5.00;89.30;;;;;;4810150;29;20194;-84
2022/05/01 02:10:35;;;;;;;24.17;9.13;;;4.90;89.10;;;;;;4810093;29;20191;-84
2022/05/01 02:13:01;;;;;;;409.03;23.90;;;4.80;89.10;;;;;;4826362;29;20181;-84
2022/05/01 02:15:32;;;;;;;420.90;23.23;;;4.70;89.20;;;;;;4810001;29;20183;-84
2022/05/01 02:17:59;;;;;;;319.43;21.67;;;4.60;89.40;;;;;;4826623;29;20218;-84
2022/05/01 02:20:27;;;;;;;304.03;21.87;;;4.50;89.50;;;;;;4809936;29;20173;-84
2022/05/01 02:22:53;;;;;;;384.30;21.17;;;4.30;89.60;;;;;;4826279;29;20179;-84
2022/05/01 02:25:21;;;;;;;356.87;19.73;;;4.20;90.00;;;;;;4826475;29;20169;-84
2022/05/01 02:27:47;;;;;;;501.73;28.87;;;4.20;90.40;;;;;;4809891;29;20187;-85
2022/05/01 02:30:12;;;;;;;116.07;12.77;;;4.20;90.60;;;;;;4826103;29;20383;-85
2022/05/01 02:32:39;;;;;;;86.97;10.60;;;4.30;90.80;;;;;;4826144;29;20177;-85
2022/05/01 02:35:06;;;;;;;61.10;11.30;;;4.30;90.80;;;;;;4825999;29;20204;-84
2022/05/01 02:37:31;;;;;;;49.43;11.40;;;4.40;90.80;;;;;;4809604;29;20675;-85
2022/05/01 02:39:57;;;;;;;116.47;13.20;;;4.50;90.80;;;;;;4809432;29;20204;-85
2022/05/01 02:42:23;;;;;;;134.80;14.47;;;4.60;91.00;;;;;;4809619;29;20224;-85
2022/05/01 02:44:48;;;;;;;305.83;19.37;;;4.60;91.10;;;;;;4809551;29;20232;-86
2022/05/01 02:47:14;;;;;;;129.03;15.47;;;4.60;91.20;;;;;;4825890;29;20592;-85
2022/05/01 02:49:40;;;;;;;198.53;16.67;;;4.70;91.40;;;;;;4825743;29;20199;-85
2022/05/01 02:52:07;;;;;;;62.50;11.97;;;4.70;91.50;;;;;;4825783;29;20613;-84
2022/05/01 02:54:33;;;;;;;66.37;11.87;;;4.70;91.60;;;;;;4809115;29;20212;-85
2022/05/01 02:56:59;;;;;;;22.97;11.17;;;4.80;91.60;;;;;;4808536;29;20566;-84
2022/05/01 02:59:24;;;;;;;16.77;12.60;;;4.80;91.70;;;;;;4809259;29;20196;-85
2022/05/01 03:01:50;;;;;;;19.80;11.37;;;4.90;91.80;;;;;;4809380;29;20187;-85
2022/05/01 03:04:15;;;;;;;18.83;12.00;;;4.90;91.80;;;;;;4825631;29;20225;-85
2022/05/01 03:06:41;;;;;;;17.83;11.80;;;4.90;91.80;;;;;;4809228;29;20197;-85
2022/05/01 03:09:08;;;;;;;14.40;11.43;;;4.90;91.80;;;;;;4809256;29;20234;-85
2022/05/01 03:11:36;;;;;;;19.37;11.73;;;4.90;91.80;;;;;;4825523;29;20248;-85
2022/05/01 03:14:04;;;;;;;15.07;11.23;;;5.00;91.80;;;;;;4809011;29;20218;-85
2022/05/01 03:16:30;;;;;;;19.10;11.83;;;5.00;91.90;;;;;;4809071;29;20192;-85
2022/05/01 03:24:24;;;;;;;49.77;14.23;;;5.20;92.10;;;;;;4825618;29;20583;-85
2022/05/01 03:26:49;;;;;;;15.87;12.30;;;5.20;92.10;;;;;;4808970;29;20195;-85
2022/05/01 03:29:16;;;;;;;14.90;12.20;;;5.20;92.10;;;;;;4825208;29;20213;-85
2022/05/01 03:31:41;;;;;;;15.00;12.83;;;5.20;92.10;;;;;;4808830;29;20576;-85
2022/05/01 03:34:07;;;;;;;20.13;13.00;;;5.20;92.10;;;;;;4825141;29;20206;-85
2022/05/01 03:36:33;;;;;;;21.33;14.50;;;5.30;92.20;;;;;;4825282;29;20229;-85
2022/05/01 03:38:59;;;;;;;19.27;14.63;;;5.30;92.30;;;;;;4808689;29;20260;-85
2022/05/01 03:41:26;;;;;;;20.37;14.23;;;5.30;92.30;;;;;;4825099;29;20207;-85
2022/05/01 03:43:52;;;;;;;25.00;14.93;;;5.50;92.40;;;;;;4808584;29;20191;-85
2022/05/01 03:46:20;;;;;;;24.73;14.80;;;5.50;92.50;;;;;;4824984;29;20197;-85
2022/05/01 03:48:46;;;;;;;21.77;14.10;;;5.50;92.50;;;;;;4824920;29;20349;-85
2022/05/01 03:51:12;;;;;;;235.07;20.33;;;5.50;92.40;;;;;;4824868;29;20194;-85
2022/05/01 03:53:38;;;;;;;17.50;13.47;;;5.50;92.50;;;;;;4808326;29;20215;-85
2022/05/01 03:56:05;;;;;;;16.97;12.03;;;5.60;92.50;;;;;;4808540;29;20183;-85
2022/05/01 03:58:30;;;;;;;20.47;13.10;;;5.50;92.40;;;;;;4808919;29;20206;-85
2022/05/01 04:00:57;;;;;;;28.90;17.37;;;5.60;92.40;;;;;;4825059;29;20700;-85
2022/05/01 04:03:22;;;;;;;22.13;14.83;;;5.60;92.40;;;;;;4808389;29;20220;-85
2022/05/01 04:05:48;;;;;;;21.23;14.03;;;5.60;92.40;;;;;;4824742;29;20684;-85
2022/05/01 04:08:14;;;;;;;27.77;15.30;;;5.70;92.50;;;;;;4807893;29;20213;-85
2022/05/01 04:10:41;;;;;;;23.93;15.23;;;5.70;92.50;;;;;;4808222;29;20186;-85
2022/05/01 04:13:08;;;;;;;23.93;15.80;;;5.70;92.50;;;;;;4824627;29;20221;-84
2022/05/01 04:15:36;;;;;;;25.03;16.07;;;5.70;92.50;;;;;;4808172;29;20180;-85
2022/05/01 04:18:02;;;;;;;30.93;17.30;;;5.70;92.50;;;;;;4824491;29;20262;-84
2022/05/01 04:20:28;;;;;;;19.20;16.07;;;5.70;92.50;;;;;;4824615;29;20183;-85
2022/05/01 04:22:54;;;;;;;21.90;15.77;;;5.80;92.50;;;;;;4808062;29;20184;-85
2022/05/01 04:25:21;;;;;;;23.43;15.47;;;5.80;92.50;;;;;;4808054;29;20207;-85
2022/05/01 04:27:49;;;;;;;25.00;15.23;;;5.70;92.50;;;;;;4808269;29;20183;-85
2022/05/01 04:30:15;;;;;;;21.20;14.67;;;5.80;92.50;;;;;;4808147;29;20210;-85
2022/05/01 04:32:57;;;;;;;20.00;13.40;;;5.80;92.40;;;;;;4807956;29;20270;-85
2022/05/01 04:35:31;;;;;;;17.43;13.30;;;5.80;92.40;;;;;;4824363;29;20186;-85
2022/05/01 04:38:02;;;;;;;19.57;13.03;;;5.80;92.40;;;;;;4808080;29;20178;-85
2022/05/01 04:40:28;;;;;;;22.40;12.07;;;5.80;92.50;;;;;;4807930;29;20199;-85
2022/05/01 04:43:04;;;;;;;17.63;13.23;;;5.90;92.50;;;;;;4808235;29;20588;-85
2022/05/01 04:45:30;;;;;;;24.07;13.57;;;6.00;92.60;;;;;;4807854;29;20662;-85
2022/05/01 04:47:57;;;;;;;19.97;12.93;;;6.00;92.60;;;;;;4824273;29;20650;-85
2022/05/01 04:50:22;;;;;;;20.40;11.87;;;6.10;92.70;;;;;;4824200;29;20203;-85
2022/05/01 04:52:48;;;;;;;26.40;13.63;;;6.10;92.70;;;;;;4807926;29;20190;-84
2022/05/01 04:55:13;;;;;;;15.97;12.57;;;6.20;92.70;;;;;;4807750;29;20220;-85
2022/05/01 04:57:39;;;;;;;20.17;15.13;;;6.20;92.80;;;;;;4807784;29;20180;-85
2022/05/01 05:00:07;;;;;;;21.73;14.07;;;6.30;92.80;;;;;;4824150;29;20196;-85
2022/05/01 05:02:41;;;;;;;18.57;14.27;;;6.40;92.90;;;;;;4807723;29;20214;-85
2022/05/01 05:05:09;;;;;;;18.47;13.57;;;6.60;92.90;;;;;;4807593;29;20273;-85
2022/05/01 05:07:36;;;;;;;18.77;14.60;;;6.60;92.90;;;;;;4824061;29;20186;-85
2022/05/01 05:10:02;;;;;;;29.47;14.80;;;6.60;92.90;;;;;;4824116;29;20207;-85
2022/05/01 05:12:27;;;;;;;18.73;13.30;;;6.60;92.90;;;;;;4823860;29;20268;-85
2022/05/01 05:14:55;;;;;;;19.63;13.47;;;6.70;92.90;;;;;;4807569;29;20306;-85
2022/05/01 05:17:21;;;;;;;16.90;13.43;;;6.70;92.90;;;;;;4824205;29;20176;-85
2022/05/01 05:19:47;;;;;;;20.90;13.37;;;6.70;92.90;;;;;;4826129;29;20197;-85
2022/05/01 05:22:13;;;;;;;20.13;13.10;;;6.70;92.90;;;;;;4810958;29;20723;-85
2022/05/01 05:24:39;;;;;;;18.73;12.50;;;6.70;92.90;;;;;;4827512;29;20546;-85
2022/05/01 05:27:05;;;;;;;21.63;12.57;;;6.80;92.90;;;;;;4810970;29;20282;-85
2022/05/01 05:29:30;;;;;;;20.37;12.87;;;6.70;92.90;;;;;;4810905;29;20285;-85
2022/05/01 05:31:56;;;;;;;17.77;13.43;;;6.80;92.80;;;;;;4810928;29;20187;-85
2022/05/01 05:34:22;;;;;;;21.70;12.63;;;6.80;92.90;;;;;;4810706;29;20687;-85
2022/05/01 05:36:48;;;;;;;21.83;13.30;;;6.90;92.90;;;;;;4810804;29;20286;-85
2022/05/01 05:39:14;;;;;;;18.63;13.40;;;7.00;92.90;;;;;;4810661;29;20203;-85
2022/05/01 05:41:40;;;;;;;22.07;13.40;;;7.00;92.90;;;;;;4810811;29;20203;-85
2022/05/01 05:44:05;;;;;;;22.00;13.83;;;7.00;92.80;;;;;;4826866;29;20191;-85
2022/05/01 05:46:31;;;;;;;19.57;13.97;;;7.10;92.80;;;;;;4826937;29;20187;-85
2022/05/01 05:48:57;;;;;;;16.97;12.00;;;7.10;92.80;;;;;;4810621;29;20204;-85
2022/05/01 05:51:23;;;;;;;21.57;13.23;;;7.20;92.80;;;;;;4826864;29;20203;-85
2022/05/01 05:53:52;;;;;;;19.47;13.90;;;7.20;92.80;;;;;;4826714;29;20695;-85
2022/05/01 05:56:19;;;;;;;19.10;13.57;;;7.20;92.80;;;;;;4826661;29;20176;-85
2022/05/01 05:58:44;;;;;;;17.37;13.73;;;7.30;92.80;;;;;;4810327;29;20208;-86
2022/05/01 06:01:11;;;;;;;23.17;12.80;;;7.30;92.80;;;;;;4810313;29;20181;-86
2022/05/01 06:03:37;;;;;;;14.67;11.90;;;7.30;92.80;;;;;;4826485;29;20176;-85
2022/05/01 06:06:03;;;;;;;23.10;12.40;;;7.40;92.80;;;;;;4826582;29;20188;-85
2022/05/01 06:08:29;;;;;;;18.20;13.63;;;7.40;92.80;;;;;;4826425;29;20583;-85
2022/05/01 06:10:55;;;;;;;21.13;12.83;;;7.40;92.70;;;;;;4826436;29;20591;-85
2022/05/01 06:13:20;;;;;;;23.00;13.60;;;7.40;92.80;;;;;;4826367;29;20237;-85
2022/05/01 06:15:47;;;;;;;15.50;13.10;;;7.50;92.80;;;;;;4810132;29;20608;-85
2022/05/01 06:18:13;;;;;;;24.17;13.57;;;7.50;92.80;;;;;;4826550;29;20177;-85
2022/05/01 06:20:39;;;;;;;19.47;13.77;;;7.60;92.80;;;;;;4810176;29;20191;-85
2022/05/01 06:23:04;;;;;;;25.00;13.20;;;7.60;92.80;;;;;;4826636;29;20642;-85
2022/05/01 06:25:30;;;;;;;19.67;13.33;;;7.70;92.80;;;;;;4826275;29;20335;-86
2022/05/01 06:27:56;;;;;;;20.67;12.80;;;7.90;92.80;;;;;;4809955;29;20176;-86
2022/05/01 06:30:22;;;;;;;20.53;13.00;;;8.10;93.00;;;;;;4809725;29;20196;-85
2022/05/01 06:32:48;;;;;;;21.30;13.13;;;8.30;92.90;;;;;;4809891;29;20186;-85
2022/05/01 06:35:16;;;;;;;19.87;10.87;;;8.40;92.80;;;;;;4826067;29;20204;-86
2022/05/01 06:37:42;;;;;;;19.57;10.90;;;8.50;92.70;;;;;;4826167;29;20196;-85
2022/05/01 06:40:08;;;;;;;15.10;8.30;;;8.60;92.50;;;;;;4809636;29;20268;-86
2022/05/01 06:42:34;;;;;;;11.90;7.83;;;8.60;92.20;;;;;;4809661;29;20263;-86
2022/05/01 06:45:00;;;;;;;15.83;8.90;;;8.60;92.00;;;;;;4826005;29;20177;-85
2022/05/01 06:47:26;;;;;;;14.80;9.57;;;8.60;91.50;;;;;;4825898;29;20598;-85
2022/05/01 06:49:51;;;;;;;14.63;7.70;;;8.60;91.10;;;;;;4825889;29;20580;-85
2022/05/01 06:52:24;;;;;;;16.63;7.60;;;8.60;90.50;;;;;;4809580;29;20271;-85
2022/05/01 06:54:51;;;;;;;17.37;9.27;;;8.70;90.20;;;;;;4809446;29;20207;-85
2022/05/01 06:57:16;;;;;;;15.53;10.80;;;8.80;90.00;;;;;;4809355;29;20267;-85
2022/05/01 06:59:42;;;;;;;16.13;9.10;;;8.90;89.80;;;;;;4809362;29;20223;-85
2022/05/01 07:02:08;;;;;;;17.33;11.33;;;8.80;89.30;;;;;;4825749;29;20233;-85
2022/05/01 07:04:33;;;;;;;22.27;12.20;;;9.10;89.30;;;;;;4825676;29;20663;-85
2022/05/01 07:06:59;;;;;;;28.80;13.00;;;9.20;88.70;;;;;;4810147;29;20240;-85
2022/05/01 07:09:25;;;;;;;26.53;16.97;;;9.30;88.40;;;;;;4809450;29;20236;-85
2022/05/01 07:11:50;;;;;;;18.63;11.83;;;9.30;88.40;;;;;;4825581;29;20654;-85
2022/05/01 07:14:16;;;;;;;23.07;11.23;;;9.30;88.00;;;;;;4825399;29;20207;-85
2022/05/01 07:16:41;;;;;;;14.23;10.10;;;9.30;87.60;;;;;;4809643;29;20244;-85
2022/05/01 07:19:07;;;;;;;16.03;9.77;;;9.30;87.40;;;;;;4809030;29;20200;-86
2022/05/01 07:21:32;;;;;;;13.70;8.23;;;9.30;87.10;;;;;;4809233;29;20191;-85
2022/05/01 07:23:58;;;;;;;10.30;7.63;;;9.30;86.20;;;;;;4809048;29;20179;-85
2022/05/01 07:26:25;;;;;;;14.50;8.47;;;9.40;86.30;;;;;;4809003;29;20233;-85
2022/05/01 07:28:51;;;;;;;13.93;8.43;;;9.20;85.10;;;;;;4825158;29;20196;-85
2022/05/01 07:31:16;;;;;;;9.30;6.60;;;9.40;85.80;;;;;;4808765;29;20274;-86
2022/05/01 07:33:42;;;;;;;13.17;7.50;;;9.50;85.60;;;;;;4808841;29;20212;-86
2022/05/01 07:36:08;;;;;;;11.67;7.07;;;9.60;85.20;;;;;;4808819;29;20175;-86
2022/05/01 07:38:33;;;;;;;18.70;6.93;;;9.60;84.80;;;;;;4808924;29;20559;-86
2022/05/01 07:40:59;;;;;;;21.40;9.43;;;9.60;84.30;;;;;;4808534;29;20552;-86
2022/05/01 07:43:24;;;;;;;12.90;7.50;;;9.60;84.10;;;;;;4808404;29;20192;-86
2022/05/01 07:45:50;;;;;;;11.50;7.20;;;9.70;84.00;;;;;;4825146;29;20240;-86
2022/05/01 07:48:15;;;;;;;8.70;6.57;;;9.80;83.60;;;;;;4808584;29;20188;-85
2022/05/01 07:50:41;;;;;;;13.47;7.03;;;9.90;83.50;;;;;;4825166;29;20190;-85
2022/05/01 07:53:07;;;;;;;8.37;4.60;;;10.00;82.90;;;;;;4824926;29;20207;-86
2022/05/01 07:55:32;;;;;;;9.40;5.73;;;10.20;81.90;;;;;;4808488;29;20187;-85
2022/05/01 07:57:58;;;;;;;10.50;6.80;;;10.30;80.30;;;;;;4825062;29;20176;-85
2022/05/01 08:00:24;;;;;;;10.30;6.57;;;10.40;80.70;;;;;;4808441;29;20311;-86
2022/05/01 08:05:35;;;;;;;12.73;6.30;;;10.50;81.00;;;;;;4825220;29;20547;-86
2022/05/01 08:08:01;;;;;;;12.60;7.10;;;10.60;81.30;;;;;;4808437;29;20193;-85
2022/05/01 08:10:26;;;;;;;11.17;5.87;;;10.70;80.20;;;;;;4808299;29;20192;-85
2022/05/01 08:12:52;;;;;;;9.77;5.57;;;10.90;79.90;;;;;;4808400;29;20677;-85
2022/05/01 08:15:18;;;;;;;14.40;5.23;;;11.00;79.80;;;;;;4824991;29;20319;-85
2022/05/01 08:17:47;;;;;;;12.30;5.87;;;11.00;78.30;;;;;;4809139;29;20212;-85
2022/05/01 08:23:08;;;;;;;5.57;4.80;;;11.10;77.10;;;;;;4826377;29;20217;-86
2022/05/01 08:25:34;;;;;;;8.57;4.97;;;11.20;75.40;;;;;;4808424;29;20270;-86
2022/05/01 08:28:00;;;;;;;9.67;5.47;;;11.30;75.40;;;;;;4808351;29;20240;-87
2022/05/01 08:30:26;;;;;;;10.20;5.40;;;11.40;74.80;;;;;;4808137;29;20188;-86
2022/05/01 08:32:52;;;;;;;11.23;4.50;;;11.50;74.80;;;;;;4808328;29;20188;-86
2022/05/01 08:35:18;;;;;;;6.60;4.13;;;11.60;74.30;;;;;;4808215;29;20219;-86
2022/05/01 08:37:44;;;;;;;7.17;3.93;;;11.70;73.10;;;;;;4807929;29;20188;-86
2022/05/01 08:40:09;;;;;;;8.27;4.53;;;11.70;70.00;;;;;;4824488;29;20219;-86
2022/05/01 08:42:38;;;;;;;8.67;4.27;;;11.70;72.30;;;;;;4808219;29;20212;-86
2022/05/01 08:45:09;;;;;;;5.23;4.00;;;11.70;72.90;;;;;;4808323;29;20203;-85
2022/05/01 08:47:38;;;;;;;7.10;3.57;;;11.70;73.50;;;;;;4824636;29;20179;-84
2022/05/01 08:50:08;;;;;;;3.93;3.27;;;11.90;73.00;;;;;;4808108;29;20208;-85
2022/05/01 08:52:36;;;;;;;7.20;3.60;;;11.90;71.50;;;;;;4808255;29;20203;-85
2022/05/01 08:55:04;;;;;;;8.77;3.70;;;11.80;70.50;;;;;;4812778;29;20302;-84
2022/05/01 08:57:33;;;;;;;7.27;3.97;;;11.90;71.50;;;;;;4827850;29;20567;-85
2022/05/01 08:59:58;;;;;;;9.77;3.87;;;12.20;71.40;;;;;;4811661;29;20208;-84
2022/05/01 09:02:25;;;;;;;5.50;3.07;;;12.30;70.60;;;;;;4827590;29;20181;-85
2022/05/01 09:04:50;;;;;;;8.47;3.07;;;12.10;67.20;;;;;;4827542;29;20180;-85
2022/05/01 09:07:16;;;;;;;8.23;3.57;;;12.70;69.20;;;;;;4827398;29;20262;-85
2022/05/01 09:09:41;;;;;;;9.87;3.10;;;13.00;68.80;;;;;;4827644;29;20212;-85
2022/05/01 09:14:52;;;;;;;9.10;3.37;;;13.00;67.50;;;;;;4827695;29;20272;-85
2022/05/01 09:17:20;;;;;;;5.83;2.70;;;13.20;66.10;;;;;;4827521;29;20180;-84
2022/05/01 09:19:49;;;;;;;3.27;2.10;;;13.30;64.20;;;;;;4810825;29;20204;-84
2022/05/01 09:22:16;;;;;;;6.70;2.53;;;12.90;61.60;;;;;;4810856;29;20184;-84
2022/05/01 09:24:42;;;;;;;4.47;2.67;;;12.90;60.80;;;;;;4810978;29;20680;-84
2022/05/01 09:27:25;;;;;;;5.77;3.07;;;13.10;62.30;;;;;;4827435;29;20245;-84
2022/05/01 09:30:07;;;;;;;2.57;1.93;;;12.90;61.50;;;;;;4810899;29;20675;-84
2022/05/01 09:32:37;;;;;;;4.57;1.83;;;12.90;62.00;;;;;;4810838;29;20184;-85
2022/05/01 09:35:04;;;;;;;4.30;2.00;;;13.60;57.80;;;;;;4827197;29;20204;-84
2022/05/01 09:37:30;;;;;;;2.77;1.73;;;13.70;59.10;;;;;;4811020;29;20180;-85
2022/05/01 09:39:55;;;;;;;2.93;1.60;;;13.90;58.80;;;;;;4811062;29;20549;-85
2022/05/01 09:42:24;;;;;;;5.40;2.00;;;14.00;54.00;;;;;;4827233;29;20191;-86
2022/05/01 09:45:06;;;;;;;8.77;2.53;;;14.50;56.00;;;;;;4827371;29;20706;-86
2022/05/01 09:47:39;;;;;;;4.47;1.80;;;14.70;53.70;;;;;;4812155;29;20560;-86
2022/05/01 09:50:06;;;;;;;5.50;1.77;;;14.90;56.10;;;;;;4828698;29;20196;-88
2022/05/01 09:52:55;;;;;;;3.10;1.83;;;14.50;51.00;;;;;;4812633;29;20192;-89
2022/05/01 09:55:21;;;;;;;3.63;1.70;;;14.20;55.80;;;;;;4812193;29;20265;-87
2022/05/01 09:57:46;;;;;;;2.97;1.30;;;15.10;54.40;;;;;;4828129;29;20180;-86
2022/05/01 10:00:13;;;;;;;1.70;1.07;;;15.30;48.30;;;;;;4827865;29;20225;-85
2022/05/01 10:02:38;;;;;;;2.70;1.40;;;15.20;45.70;;;;;;4811571;29;20237;-85
2022/05/01 10:05:07;;;;;;;2.45;1.17;;;15.20;46.90;;;;;;4828053;29;20188;-86
2022/05/01 10:07:38;;;;;;;2.20;1.20;;;15.20;46.60;;;;;;4812764;29;20192;-86
2022/05/01 10:10:08;;;;;;;3.42;1.55;;;15.30;47.10;;;;;;4813232;29;20229;-85
2022/05/01 10:12:43;;;;;;;3.58;1.55;;;15.60;46.40;;;;;;4812658;29;20219;-86
2022/05/01 10:15:10;;;;;;;4.18;1.85;;;15.60;45.10;;;;;;4812132;29;20208;-86
2022/05/01 10:17:38;;;;;;;1.98;1.60;;;15.60;44.40;;;;;;4810631;29;20244;-85
2022/05/01 10:20:04;;;;;;;3.50;2.10;;;15.40;44.20;;;;;;4826647;29;20201;-86
2022/05/01 10:22:32;;;;;;;2.38;1.65;;;15.40;46.00;;;;;;4826468;29;20184;-85
2022/05/01 10:24:57;;;;;;;4.28;2.08;;;15.60;44.70;;;;;;4826570;29;20192;-84
2022/05/01 10:27:32;;;;;;;4.40;2.20;;;15.30;44.10;;;;;;4810505;29;20587;-85
2022/05/01 10:33:05;;;;;;;2.70;1.98;;;15.50;41.70;;;;;;4827535;29;20171;-88
2022/05/01 10:35:55;;;;;;;3.58;1.92;;;15.60;45.60;;;;;;4811894;29;20211;-86
2022/05/01 10:38:48;;;;;;;3.50;1.58;;;16.10;46.20;;;;;;4810103;29;20267;-85
2022/05/01 10:41:16;;;;;;;2.55;1.70;;;16.50;43.50;;;;;;4811085;29;20212;-86
2022/05/01 10:43:59;;;;;;;2.70;1.40;;;16.40;43.60;;;;;;4826867;29;20536;-85
2022/05/01 10:46:26;;;;;;;2.55;1.38;;;16.40;46.60;;;;;;4810224;29;20254;-85
2022/05/01 10:48:54;;;;;;;4.40;1.80;;;16.90;46.00;;;;;;4826562;29;20211;-86
2022/05/01 10:51:36;;;;;;;1.98;1.45;;;16.70;47.00;;;;;;4827706;29;20183;-85
2022/05/01 10:54:13;;;;;;;4.88;1.95;;;16.20;46.50;;;;;;4826208;29;20192;-85
2022/05/01 10:56:41;;;;;;;3.35;1.48;;;16.30;47.70;;;;;;4826041;29;20254;-85
2022/05/01 10:59:35;;;;;;;3.10;1.73;;;16.10;44.70;;;;;;4826348;29;20753;-86
2022/05/01 11:02:17;;;;;;;2.00;1.30;;;15.70;43.70;;;;;;4826233;29;20659;-86
2022/05/01 11:04:43;;;;;;;3.55;1.63;;;15.80;48.40;;;;;;4809705;29;20180;-86
2022/05/01 11:07:11;;;;;;;1.50;1.40;;;16.40;48.30;;;;;;4825851;29;20528;-85
2022/05/01 11:09:37;;;;;;;2.83;1.20;;;17.10;41.40;;;;;;4809991;29;20272;-85
2022/05/01 11:12:07;;;;;;;2.70;1.40;;;17.30;40.40;;;;;;4809556;29;20267;-86
2022/05/01 11:14:33;;;;;;;2.60;1.30;;;17.60;43.80;;;;;;4794846;29;20695;-85
2022/05/01 11:16:59;;;;;;;3.75;1.50;;;16.80;40.90;;;;;;4809196;29;20565;-86
2022/05/01 11:19:31;;;;;;;3.10;1.48;;;16.80;43.20;;;;;;4809452;29;20207;-85
2022/05/01 11:21:57;;;;;;;2.92;1.67;;;16.80;43.80;;;;;;4826032;29;20161;-85
2022/05/01 11:24:45;;;;;;;2.55;1.58;;;16.10;46.00;;;;;;4826533;29;20236;-84
2022/05/01 11:27:11;;;;;;;4.47;1.80;;;16.90;43.90;;;;;;4809793;29;20664;-86
2022/05/01 11:29:37;;;;;;;3.30;1.77;;;17.00;43.80;;;;;;4809580;29;20252;-86
2022/05/01 11:32:19;;;;;;;3.13;1.65;;;17.20;44.10;;;;;;4809393;29;20683;-86
2022/05/01 11:34:50;;;;;;;3.72;1.90;;;17.30;42.00;;;;;;4810083;29;20222;-86
2022/05/01 11:37:16;;;;;;;3.17;1.55;;;17.50;43.10;;;;;;4810899;29;20181;-89
2022/05/01 11:39:50;;;;;;;3.03;1.67;;;17.50;43.20;;;;;;4810755;29;20227;-86
2022/05/01 11:42:29;;;;;;;2.83;1.70;;;17.20;46.10;;;;;;4810686;29;20226;-85
2022/05/01 11:45:00;;;;;;;6.22;1.80;;;17.40;45.00;;;;;;4829208;29;20557;-86
2022/05/01 11:47:32;;;;;;;8.65;2.17;;;17.40;45.20;;;;;;4811399;29;20198;-88
2022/05/01 11:49:57;;;;;;;2.38;1.90;;;16.20;46.70;;;;;;4828227;29;20746;-86
2022/05/01 11:52:24;;;;;;;4.38;2.10;;;15.00;47.30;;;;;;4811358;29;20188;-86
2022/05/01 11:54:58;;;;;;;4.45;2.45;;;15.60;48.80;;;;;;4809191;29;20207;-85
2022/05/01 12:03:02;;;;;;;4.15;2.40;;;16.80;46.90;;;;;;4826364;29;20180;-86
2022/05/01 12:05:31;;;;;;;3.05;2.17;;;17.30;46.50;;;;;;4809938;29;20199;-85
2022/05/01 12:07:57;;;;;;;5.80;2.13;;;17.20;46.10;;;;;;4825834;29;20659;-86
2022/05/01 12:10:23;;;;;;;4.78;2.42;;;17.20;45.10;;;;;;4808962;29;20230;-85
2022/05/01 12:12:49;;;;;;;4.15;2.42;;;15.90;45.80;;;;;;4809246;29;20188;-87
2022/05/01 12:15:16;;;;;;;2.85;1.77;;;16.00;44.30;;;;;;4809153;29;20212;-87
2022/05/01 12:17:43;;;;;;;8.18;2.03;;;16.50;46.00;;;;;;4808802;29;20236;-86
2022/05/01 12:20:09;;;;;;;5.07;2.38;;;15.60;44.60;;;;;;4809308;29;20211;-87
2022/05/01 12:22:38;;;;;;;5.03;2.28;;;15.90;48.10;;;;;;4809687;29;20267;-86
2022/05/01 12:25:10;;;;;;;3.40;2.05;;;16.20;46.10;;;;;;4809992;29;20568;-86
2022/05/01 12:27:40;;;;;;;5.20;2.13;;;16.00;45.40;;;;;;4809045;29;20180;-86
2022/05/01 12:30:06;;;;;;;4.45;2.17;;;15.30;46.40;;;;;;4825410;29;20203;-88
2022/05/01 12:32:32;;;;;;;6.07;2.30;;;15.70;47.90;;;;;;4810972;29;20192;-88
2022/05/01 12:35:03;;;;;;;5.65;2.13;;;15.80;48.90;;;;;;4812084;29;20230;-88
2022/05/01 12:37:34;;;;;;;4.45;2.10;;;15.30;47.60;;;;;;4825098;29;20164;-85
2022/05/01 12:40:03;;;;;;;3.53;1.88;;;15.60;47.00;;;;;;4825167;29;20231;-85
2022/05/01 12:45:17;;;;;;;9.30;2.80;;;15.30;46.40;;;;;;4826287;29;20179;-86
2022/05/01 12:47:50;;;;;;;5.38;2.42;;;15.00;48.50;;;;;;4809570;29;20678;-88
2022/05/01 12:50:18;;;;;;;5.13;2.05;;;15.30;47.30;;;;;;4825317;29;20200;-87
2022/05/01 12:53:05;;;;;;;5.38;2.20;;;15.90;46.50;;;;;;4810931;29;20706;-87
2022/05/01 12:55:33;;;;;;;3.42;2.35;;;16.10;46.30;;;;;;4821281;29;20231;-85
2022/05/01 12:58:01;;;;;;;5.65;3.38;;;16.20;46.50;;;;;;4808755;29;20188;-85
2022/05/01 13:00:41;;;;;;;5.07;3.08;;;15.50;51.90;;;;;;4808210;29;20189;-85
2022/05/01 13:03:25;;;;;;;6.28;3.45;;;15.40;54.30;;;;;;4824470;29;20187;-85
2022/05/01 13:06:12;;;;;;;6.93;3.38;;;14.90;55.50;;;;;;4808386;29;20189;-85
2022/05/01 13:08:41;;;;;;;7.85;3.40;;;15.40;55.20;;;;;;4808092;29;20200;-86
2022/05/01 13:11:24;;;;;;;8.63;3.40;;;15.90;53.60;;;;;;4810383;29;20176;-87
2022/05/01 13:13:52;;;;;;;6.32;3.38;;;15.90;51.40;;;;;;4809650;29;20208;-86
2022/05/01 13:16:22;;;;;;;8.45;3.85;;;16.00;50.60;;;;;;4824991;29;20255;-86
2022/05/01 13:18:51;;;;;;;5.70;3.40;;;14.70;55.10;;;;;;4825999;29;20197;-88